aviador You're here:

KEVM Decoded Metar

EVELETH MUNI in MN, USA
Report Time2018-07-18 23:35:00
UTC Time2018-07-18 23:49:46
Flight Rules vfr VFR
Wind190° at 07 kt
W.Decomp.*RWY 14: 4.5 kt HW 5.4 kt RCW
RWY 27: 1.2 kt HW 6.9 kt LCW
W.Rank190° ranks 17
Current wind is below 190° avg. (7.5)
Visibility9999 m
Phenomena:N/A
Clouds:Broken 055 Hf
Broken 120 Hf
Expected CloudBase > 4,400 ft AGL from Temp-Dew spread
Ceiling5,500 ft
Temp26°C (ISA +14)
Dew Point15°C (51% RH)
AAT25.1°C
QNH1016 hPa
Density Alt3,097 ft
Elevation1,381 ft
Report Wrong Elevation
Raw Report
KEVM 182335Z AUTO 19007KT 10SM BKN055 BKN120 26/15 A3001 RMK AO2
T02600148=

Extra information for KEVM:More info

Metar Taf Metar & Taf Last 4 Metars F.Rules Stats Wind Profile Meteogram Temp Stats Airport Information Weather charts Add Link Nearby VenuesMetar ALERT Operation Metar Decoded Social comments

AIRNAV info for KEVM